Terminal Aerodrome Forecast
Issued by NWS

Home | Current Version | Previous Version | Text Only | Print | Product List | Glossary On
Versions: 1 2 3 4 5 6 7 8 9 10 11 12 13 14
000
FTUS41 KRNK 200520
TAFLWB
TAF
KLWB 200520Z 2006/2106 00000KT P6SM SKC WS020/28035KT
     FM201300 27008KT P6SM FEW250
     FM201500 27010G18KT P6SM FEW040
     FM202000 27008KT P6SM BKN040
     FM210000 26004KT P6SM BKN015=

USA.gov is the U.S. government's official web portal to all federal, state and local government web resources and services.